Time;durP1;ratioP1;P1;durP2;ratioP2;P2;SDS_P1;SDS_P2;PMS_P1;PMS_P2;Temp;Humidity;BMP_temperature;BMP_pressure;BME280_temperature;BME280_humidity;BME280_pressure;Samples;Min_cycle;Max_cycle;Signal;HPM_P1;HPM_P2
2022/04/16 00:00:06;;;;;;;2.40;2.20;;;;;19.20;101872.00;;;;2077706;28;20222;-46
2022/04/16 00:01:07;;;;;;;2.30;2.10;;;;;19.20;101881.00;;;;2079909;28;20675;-46
2022/04/16 00:02:07;;;;;;;2.83;2.63;;;;;19.20;101865.00;;;;2079631;28;20222;-46
2022/04/16 00:03:10;;;;;;;2.40;2.20;;;;;19.20;101873.00;;;;2087144;28;20986;-46
2022/04/16 00:04:10;;;;;;;2.38;2.17;;;;;19.20;101870.00;;;;2079796;28;20309;-46
2022/04/16 00:05:10;;;;;;;2.47;2.27;;;;;19.20;101874.00;;;;2079795;28;20240;-46
2022/04/16 00:06:11;;;;;;;2.40;2.20;;;;;19.20;101870.00;;;;2085768;28;20209;-46
2022/04/16 00:07:11;;;;;;;2.50;2.20;;;;;19.20;101880.00;;;;2086879;28;20216;-46
2022/04/16 00:08:12;;;;;;;2.60;2.40;;;;;19.20;101875.00;;;;2079360;28;20670;-46
2022/04/16 00:09:12;;;;;;;2.07;1.90;;;;;19.20;101869.00;;;;2079227;28;20722;-46
2022/04/16 00:10:12;;;;;;;2.27;2.17;;;;;19.20;101865.00;;;;2079394;28;20722;-46
2022/04/16 00:11:12;;;;;;;2.40;2.20;;;;;19.20;101870.00;;;;2079443;28;20213;-46
2022/04/16 00:12:13;;;;;;;2.40;2.20;;;;;19.20;101870.00;;;;2079907;28;20275;-47
2022/04/16 00:13:14;;;;;;;2.70;2.50;;;;;19.20;101865.00;;;;2085071;28;20216;-46
2022/04/16 00:14:15;;;;;;;2.45;2.25;;;;;19.20;101869.00;;;;2085385;28;20709;-46
2022/04/16 00:15:15;;;;;;;2.80;2.60;;;;;19.20;101826.00;;;;2087198;28;20217;-46
2022/04/16 00:16:17;;;;;;;2.57;2.43;;;;;19.20;101862.00;;;;2086484;28;20975;-46
2022/04/16 00:17:17;;;;;;;2.40;2.20;;;;;19.20;101874.00;;;;2087335;28;20596;-46
2022/04/16 00:18:18;;;;;;;2.20;2.10;;;;;19.20;101859.00;;;;2087329;28;20213;-46
2022/04/16 00:19:19;;;;;;;2.70;2.50;;;;;19.20;101878.00;;;;2086256;28;20217;-46
2022/04/16 00:20:19;;;;;;;2.40;2.20;;;;;19.20;101859.00;;;;2086777;28;21520;-46
2022/04/16 00:21:22;;;;;;;2.10;1.90;;;;;19.20;101860.00;;;;2087023;28;20256;-46
2022/04/16 00:22:23;;;;;;;2.30;2.05;;;;;19.20;101870.00;;;;2078716;28;20213;-48
2022/04/16 00:23:26;;;;;;;2.40;2.20;;;;;19.20;101858.00;;;;2079038;28;20210;-47
2022/04/16 00:24:29;;;;;;;4.18;2.72;;;;;19.20;101869.00;;;;2078882;28;20221;-47
2022/04/16 00:25:32;;;;;;;2.42;2.22;;;;;19.20;101861.00;;;;2078130;28;20209;-47
2022/04/16 00:26:38;;;;;;;2.63;2.42;;;;;19.20;101869.00;;;;2079044;28;20212;-47
2022/04/16 00:27:39;;;;;;;2.15;1.95;;;;;19.20;101870.00;;;;2073376;28;20210;-47
2022/04/16 00:28:40;;;;;;;3.50;2.23;;;;;19.20;101862.00;;;;2070893;28;20234;-47
2022/04/16 00:29:40;;;;;;;2.63;2.43;;;;;19.20;101859.00;;;;2077398;28;20468;-47
2022/04/16 00:30:40;;;;;;;2.77;2.57;;;;;19.20;101860.00;;;;2072508;28;20226;-46
2022/04/16 00:31:42;;;;;;;2.40;2.27;;;;;19.20;101859.00;;;;2072821;28;20264;-46
2022/04/16 00:32:42;;;;;;;2.75;2.55;;;;;19.20;101862.00;;;;2078966;28;20267;-47
2022/04/16 00:33:42;;;;;;;2.40;2.23;;;;;19.20;101858.00;;;;2078680;28;20625;-46
2022/04/16 00:34:43;;;;;;;2.40;2.20;;;;;19.10;101860.00;;;;2078945;28;20221;-46
2022/04/16 00:35:43;;;;;;;2.87;2.67;;;;;19.20;101853.00;;;;2072782;28;20245;-48
2022/04/16 00:36:44;;;;;;;2.57;2.37;;;;;19.20;101860.00;;;;2070630;28;20218;-47
2022/04/16 00:37:46;;;;;;;2.50;2.30;;;;;19.20;101870.00;;;;2070560;28;20218;-47
2022/04/16 00:38:46;;;;;;;2.45;2.25;;;;;19.20;101860.00;;;;2070883;28;20214;-46
2022/04/16 00:39:46;;;;;;;2.70;2.50;;;;;19.20;101870.00;;;;2072538;28;20422;-46
2022/04/16 00:40:47;;;;;;;2.73;2.53;;;;;19.20;101874.00;;;;2078902;28;20252;-47
2022/04/16 00:41:47;;;;;;;2.70;2.50;;;;;19.20;101870.00;;;;2078077;28;20210;-46
2022/04/16 00:42:49;;;;;;;2.67;2.47;;;;;19.20;101863.00;;;;2074533;28;20210;-46
2022/04/16 00:43:52;;;;;;;2.13;2.03;;;;;19.10;101859.00;;;;2070533;28;20210;-46
2022/04/16 00:44:52;;;;;;;2.60;2.40;;;;;19.20;101855.00;;;;2071067;28;20214;-46
2022/04/16 00:45:53;;;;;;;2.80;2.50;;;;;19.20;101862.00;;;;2070251;28;20222;-47
2022/04/16 00:46:53;;;;;;;2.60;2.40;;;;;19.20;101862.00;;;;2070877;28;20240;-47
2022/04/16 00:47:54;;;;;;;2.40;2.20;;;;;19.10;101855.00;;;;2071214;28;20222;-47
2022/04/16 00:48:54;;;;;;;2.90;2.70;;;;;19.20;101851.00;;;;2070990;28;20222;-47
2022/04/16 00:49:55;;;;;;;2.73;2.53;;;;;19.10;101860.00;;;;2071274;28;20240;-47
2022/04/16 00:50:55;;;;;;;2.90;2.70;;;;;19.10;101858.00;;;;2070566;28;20222;-47
2022/04/16 00:51:56;;;;;;;2.73;2.53;;;;;19.20;101832.00;;;;2070495;28;20226;-47
2022/04/16 00:52:56;;;;;;;2.40;2.20;;;;;19.10;101851.00;;;;2062079;28;20230;-52
2022/04/16 00:53:57;;;;;;;2.63;2.43;;;;;19.10;101849.00;;;;2062270;28;20222;-51
2022/04/16 00:54:57;;;;;;;2.60;2.40;;;;;19.10;101849.00;;;;2071264;28;20222;-48
2022/04/16 00:55:58;;;;;;;2.33;2.17;;;;;19.10;101856.00;;;;2070456;28;20289;-47
2022/04/16 00:56:58;;;;;;;3.80;2.40;;;;;19.10;101853.00;;;;2072833;28;20301;-48
2022/04/16 00:57:58;;;;;;;2.20;2.10;;;;;19.10;101850.00;;;;2070211;28;20253;-48
2022/04/16 00:58:59;;;;;;;2.50;2.30;;;;;19.10;101856.00;;;;2074352;28;20210;-47
2022/04/16 01:00:03;;;;;;;2.57;2.30;;;;;19.10;101853.00;;;;2062174;28;20382;-47
2022/04/16 01:01:03;;;;;;;2.78;2.55;;;;;19.10;101857.00;;;;2065488;28;20214;-47
2022/04/16 01:02:04;;;;;;;2.37;2.20;;;;;19.10;101860.00;;;;2079080;28;20287;-47
2022/04/16 01:03:05;;;;;;;2.42;2.22;;;;;19.10;101862.00;;;;2079222;28;20221;-47
2022/04/16 01:04:05;;;;;;;2.63;2.43;;;;;19.10;101850.00;;;;2079167;28;20217;-46
2022/04/16 01:05:06;;;;;;;3.30;2.70;;;;;19.10;101859.00;;;;2078351;28;20213;-46
2022/04/16 01:06:06;;;;;;;2.97;2.70;;;;;19.10;101872.00;;;;2077461;28;20218;-47
2022/04/16 01:07:07;;;;;;;2.27;2.17;;;;;19.10;101859.00;;;;2079261;28;20264;-47
2022/04/16 01:08:08;;;;;;;3.10;2.90;;;;;19.10;101856.00;;;;2078604;28;20213;-47
2022/04/16 01:09:09;;;;;;;2.72;2.53;;;;;19.10;101859.00;;;;2078311;28;20702;-47
2022/04/16 01:10:09;;;;;;;2.70;2.50;;;;;19.10;101860.00;;;;2072141;28;20238;-47
2022/04/16 01:11:09;;;;;;;2.73;2.53;;;;;19.10;101854.00;;;;2071083;28;20226;-47
2022/04/16 01:12:10;;;;;;;2.77;2.47;;;;;19.10;101862.00;;;;2070787;28;20709;-47
2022/04/16 01:13:11;;;;;;;2.50;2.30;;;;;19.10;101865.00;;;;2070281;28;20210;-46
2022/04/16 01:14:11;;;;;;;2.70;2.50;;;;;19.10;101853.00;;;;2070233;28;20206;-46
2022/04/16 01:15:13;;;;;;;2.80;2.53;;;;;19.10;101862.00;;;;2070127;28;20228;-47
2022/04/16 01:16:13;;;;;;;2.92;2.72;;;;;19.10;101865.00;;;;2069410;28;20212;-47
2022/04/16 01:17:13;;;;;;;2.50;2.30;;;;;19.10;101871.00;;;;2070853;28;20218;-47
2022/04/16 01:18:14;;;;;;;2.60;2.40;;;;;19.10;101865.00;;;;2071102;28;20217;-47
2022/04/16 01:19:14;;;;;;;2.60;2.40;;;;;19.10;101872.00;;;;2070906;28;20215;-47
2022/04/16 01:20:16;;;;;;;2.60;2.40;;;;;19.10;101862.00;;;;2070707;28;20230;-47
2022/04/16 01:21:18;;;;;;;2.67;2.47;;;;;19.10;101876.00;;;;2070942;28;20210;-47
2022/04/16 01:22:20;;;;;;;2.70;2.35;;;;;19.10;101865.00;;;;2070762;28;20283;-47
2022/04/16 01:23:20;;;;;;;2.58;2.38;;;;;19.10;101861.00;;;;2075449;28;20217;-47
2022/04/16 01:24:21;;;;;;;2.93;2.73;;;;;19.10;101864.00;;;;2079150;28;20233;-47
2022/04/16 01:25:24;;;;;;;2.40;2.20;;;;;19.10;101860.00;;;;2078612;28;20217;-47
2022/04/16 01:26:24;;;;;;;2.85;2.60;;;;;19.10;101879.00;;;;2078894;28;20256;-47
2022/04/16 01:27:24;;;;;;;2.70;2.50;;;;;19.10;101860.00;;;;2078938;28;20237;-47
2022/04/16 01:28:25;;;;;;;2.77;2.57;;;;;19.10;101865.00;;;;2078739;28;20263;-47
2022/04/16 01:29:26;;;;;;;2.80;2.60;;;;;19.10;101869.00;;;;2078854;28;20214;-49
2022/04/16 01:30:27;;;;;;;2.60;2.40;;;;;19.10;101872.00;;;;2078931;28;20969;-47
2022/04/16 01:31:30;;;;;;;2.87;2.67;;;;;19.10;101871.00;;;;2078401;28;20765;-47
2022/04/16 01:32:32;;;;;;;2.58;2.38;;;;;19.10;101864.00;;;;2078892;28;20217;-47
2022/04/16 01:33:33;;;;;;;2.60;2.40;;;;;19.10;101865.00;;;;2078606;28;20220;-48
2022/04/16 01:34:34;;;;;;;2.73;2.53;;;;;19.10;101869.00;;;;2078615;28;20205;-47
2022/04/16 01:35:34;;;;;;;2.70;2.50;;;;;19.10;101862.00;;;;2078210;28;20456;-48
2022/04/16 01:36:34;;;;;;;3.03;2.60;;;;;19.10;101874.00;;;;2078773;28;20216;-47
2022/04/16 01:37:35;;;;;;;2.30;2.20;;;;;19.10;101873.00;;;;2078863;28;20232;-47
2022/04/16 01:38:35;;;;;;;2.60;2.40;;;;;19.10;101869.00;;;;2078241;28;20206;-47
2022/04/16 01:39:36;;;;;;;2.43;2.23;;;;;19.10;101872.00;;;;2078187;28;20230;-46
2022/04/16 01:40:36;;;;;;;2.90;2.70;;;;;19.10;101875.00;;;;2078713;28;20213;-46
2022/04/16 01:41:36;;;;;;;2.50;2.30;;;;;19.10;101872.00;;;;2078862;28;20236;-46
2022/04/16 01:42:37;;;;;;;2.67;2.47;;;;;19.10;101872.00;;;;2078953;28;20212;-47
2022/04/16 01:43:37;;;;;;;2.80;2.60;;;;;19.10;101873.00;;;;2078590;28;20673;-47
2022/04/16 01:44:37;;;;;;;2.30;2.20;;;;;19.10;101863.00;;;;2078781;28;20859;-47
2022/04/16 01:45:38;;;;;;;2.63;2.43;;;;;19.10;101870.00;;;;2078687;28;21062;-46
2022/04/16 01:46:38;;;;;;;2.90;2.70;;;;;19.10;101869.00;;;;2086348;28;20697;-46
2022/04/16 01:47:39;;;;;;;3.00;2.70;;;;;19.10;101869.00;;;;2078752;28;20765;-47
2022/04/16 01:48:39;;;;;;;2.73;2.53;;;;;19.10;101873.00;;;;2078688;28;20214;-47
2022/04/16 01:49:40;;;;;;;2.33;2.13;;;;;19.10;101871.00;;;;2078624;28;20238;-46
2022/04/16 01:50:40;;;;;;;2.60;2.40;;;;;19.10;101875.00;;;;2078930;28;20212;-46
2022/04/16 01:51:41;;;;;;;2.77;2.57;;;;;19.10;101881.00;;;;2078578;28;20693;-46
2022/04/16 01:52:42;;;;;;;2.73;2.53;;;;;19.10;101874.00;;;;2078658;28;20210;-46
2022/04/16 01:53:42;;;;;;;2.27;2.17;;;;;19.10;101878.00;;;;2078820;28;20209;-46
2022/04/16 01:54:42;;;;;;;3.10;2.90;;;;;19.10;101874.00;;;;2078725;28;20217;-46
2022/04/16 01:55:43;;;;;;;3.10;2.80;;;;;19.10;101874.00;;;;2078137;28;20214;-46
2022/04/16 01:56:43;;;;;;;2.50;2.30;;;;;19.10;101871.00;;;;2078717;28;20229;-46
2022/04/16 01:57:43;;;;;;;2.63;2.43;;;;;19.10;101878.00;;;;2076163;28;20210;-47
2022/04/16 01:58:44;;;;;;;2.63;2.43;;;;;19.10;101876.00;;;;2070668;28;20218;-47
2022/04/16 01:59:47;;;;;;;2.60;2.40;;;;;19.10;101877.00;;;;2074526;28;20209;-47
2022/04/16 02:00:49;;;;;;;2.90;2.60;;;;;19.10;101881.00;;;;2078839;28;20221;-46
2022/04/16 02:01:49;;;;;;;3.35;3.05;;;;;19.10;101881.00;;;;2078784;28;21166;-46
2022/04/16 02:02:50;;;;;;;2.60;2.40;;;;;19.10;101878.00;;;;2074420;28;20236;-47
2022/04/16 02:03:50;;;;;;;2.60;2.40;;;;;19.10;101875.00;;;;2085591;28;20212;-46
2022/04/16 02:04:51;;;;;;;2.60;2.40;;;;;19.10;101880.00;;;;2080117;28;20559;-46
2022/04/16 02:05:52;;;;;;;2.70;2.50;;;;;19.10;101881.00;;;;2075066;28;20243;-46
2022/04/16 02:06:53;;;;;;;2.88;2.67;;;;;19.10;101882.00;;;;2069806;28;20214;-46
2022/04/16 02:07:54;;;;;;;2.50;2.30;;;;;19.10;101884.00;;;;2070333;28;20760;-46
2022/04/16 02:08:54;;;;;;;3.10;2.80;;;;;19.10;101874.00;;;;2069977;28;20222;-47
2022/04/16 02:09:54;;;;;;;2.80;2.50;;;;;19.10;101870.00;;;;2069914;28;20222;-46
2022/04/16 02:10:55;;;;;;;2.57;2.37;;;;;19.10;101878.00;;;;2070228;28;20264;-46
2022/04/16 02:11:55;;;;;;;2.53;2.33;;;;;19.10;101882.00;;;;2070421;28;20225;-46
2022/04/16 02:12:55;;;;;;;3.00;2.70;;;;;19.10;101881.00;;;;2070028;28;20214;-46
2022/04/16 02:13:56;;;;;;;2.73;2.53;;;;;19.10;101887.00;;;;2069805;28;20671;-46
2022/04/16 02:14:56;;;;;;;2.67;2.47;;;;;19.10;101888.00;;;;2069828;28;20748;-46
2022/04/16 02:15:56;;;;;;;2.83;2.63;;;;;19.10;101888.00;;;;2077108;28;20227;-47
2022/04/16 02:16:58;;;;;;;2.73;2.53;;;;;19.10;101891.00;;;;2078511;28;20267;-46
2022/04/16 02:17:58;;;;;;;2.95;2.72;;;;;19.10;101899.00;;;;2078646;28;20218;-46
2022/04/16 02:19:00;;;;;;;2.80;2.60;;;;;19.10;101895.00;;;;2078656;28;20780;-46
2022/04/16 02:20:00;;;;;;;2.50;2.30;;;;;19.10;101904.00;;;;2085472;28;20251;-47
2022/04/16 02:21:00;;;;;;;3.23;2.93;;;;;19.10;101898.00;;;;2079884;28;20220;-46
2022/04/16 02:22:01;;;;;;;2.80;2.60;;;;;19.10;101894.00;;;;2078502;28;20232;-47
2022/04/16 02:23:02;;;;;;;2.70;2.40;;;;;19.10;101893.00;;;;2078306;28;20213;-46
2022/04/16 02:24:02;;;;;;;2.60;2.40;;;;;19.10;101893.00;;;;2078198;28;20417;-46
2022/04/16 02:25:08;;;;;;;2.80;2.60;;;;;19.10;101894.00;;;;2078044;28;20213;-47
2022/04/16 02:26:09;;;;;;;2.80;2.50;;;;;19.10;101899.00;;;;2077575;28;20233;-47
2022/04/16 02:27:10;;;;;;;2.45;2.30;;;;;19.10;101901.00;;;;2078235;28;20708;-47
2022/04/16 02:28:10;;;;;;;2.80;2.60;;;;;19.10;101908.00;;;;2078411;28;20225;-52
2022/04/16 02:29:11;;;;;;;2.70;2.50;;;;;19.10;101906.00;;;;2078621;28;20297;-47
2022/04/16 02:30:13;;;;;;;2.60;2.40;;;;;19.10;101905.00;;;;2075699;28;20294;-46
2022/04/16 02:31:14;;;;;;;3.03;2.63;;;;;19.10;101899.00;;;;2070432;28;20456;-46
2022/04/16 02:32:14;;;;;;;2.80;2.60;;;;;19.10;101901.00;;;;2070403;28;20214;-46
2022/04/16 02:33:15;;;;;;;2.63;2.43;;;;;19.10;101909.00;;;;2076229;28;20225;-46
2022/04/16 02:34:16;;;;;;;2.77;2.57;;;;;19.10;101902.00;;;;2077640;28;20206;-46
2022/04/16 02:35:17;;;;;;;2.80;2.60;;;;;19.10;101910.00;;;;2074839;28;20576;-47
2022/04/16 02:36:19;;;;;;;3.60;2.63;;;;;19.10;101902.00;;;;2078365;28;20217;-46
2022/04/16 02:37:19;;;;;;;2.60;2.40;;;;;19.10;101902.00;;;;2078573;28;20777;-46
2022/04/16 02:38:20;;;;;;;2.77;2.57;;;;;19.10;101822.00;;;;2078828;28;20245;-46
2022/04/16 02:39:20;;;;;;;3.07;2.77;;;;;19.10;101911.00;;;;2078714;28;20213;-46
2022/04/16 02:40:20;;;;;;;2.90;2.70;;;;;19.10;101910.00;;;;2078575;28;20226;-46
2022/04/16 02:41:21;;;;;;;2.80;2.60;;;;;19.10;101911.00;;;;2078641;28;20255;-47
2022/04/16 02:42:21;;;;;;;3.23;2.90;;;;;19.10;101907.00;;;;2077863;28;20241;-46
2022/04/16 02:43:21;;;;;;;3.20;2.90;;;;;19.10;101911.00;;;;2078113;28;20694;-47
2022/04/16 02:47:05;;;;;;;3.70;3.40;;;;;19.10;101914.00;;;;2076718;28;20205;-46
2022/04/16 02:48:07;;;;;;;3.00;2.80;;;;;19.10;101916.00;;;;2071953;28;20897;-46
2022/04/16 02:49:07;;;;;;;2.80;2.60;;;;;19.10;101907.00;;;;2078103;28;20218;-47
2022/04/16 02:50:08;;;;;;;2.70;2.50;;;;;19.10;101917.00;;;;2075426;28;20215;-47
2022/04/16 02:51:08;;;;;;;2.97;2.77;;;;;19.00;101916.00;;;;2078814;28;20296;-46
2022/04/16 02:52:09;;;;;;;2.93;2.73;;;;;19.00;101920.00;;;;2079119;28;20284;-47
2022/04/16 02:53:09;;;;;;;2.90;2.70;;;;;19.00;101918.00;;;;2079100;28;21238;-47
2022/04/16 02:54:09;;;;;;;3.33;3.03;;;;;19.10;101918.00;;;;2087026;28;20228;-47
2022/04/16 02:55:10;;;;;;;4.30;2.70;;;;;19.10;101912.00;;;;2079281;28;20275;-47
2022/04/16 02:56:10;;;;;;;3.20;3.00;;;;;19.10;101914.00;;;;2078063;28;20579;-46
2022/04/16 02:57:11;;;;;;;3.50;3.20;;;;;19.10;101843.00;;;;2078808;28;20232;-47
2022/04/16 02:58:12;;;;;;;3.10;2.90;;;;;19.10;101925.00;;;;2078999;28;20213;-47
2022/04/16 02:59:13;;;;;;;3.17;2.97;;;;;19.10;101916.00;;;;2078995;28;20214;-46
2022/04/16 03:00:14;;;;;;;2.90;2.70;;;;;19.10;101910.00;;;;2078997;28;20225;-47
2022/04/16 03:01:15;;;;;;;2.40;2.20;;;;;19.00;101916.00;;;;2079110;28;20248;-47
2022/04/16 03:02:15;;;;;;;2.80;2.60;;;;;19.00;101914.00;;;;2078612;28;20456;-52
2022/04/16 03:03:15;;;;;;;3.00;2.80;;;;;19.10;101920.00;;;;2078847;28;20201;-50
2022/04/16 03:04:16;;;;;;;2.90;2.70;;;;;19.10;101917.00;;;;2077355;28;20250;-47
2022/04/16 03:05:16;;;;;;;2.90;2.70;;;;;19.00;101913.00;;;;2071168;28;20206;-45
2022/04/16 03:06:17;;;;;;;3.07;2.87;;;;;19.00;101912.00;;;;2070710;28;20218;-46
2022/04/16 03:07:17;;;;;;;3.07;2.87;;;;;19.00;101920.00;;;;2072042;28;20211;-46
2022/04/16 03:08:17;;;;;;;3.07;2.87;;;;;19.10;101920.00;;;;2072583;28;20289;-47
2022/04/16 03:09:18;;;;;;;3.17;2.97;;;;;19.10;101906.00;;;;2072149;28;20238;-47
2022/04/16 03:10:18;;;;;;;3.00;2.80;;;;;19.00;101917.00;;;;2072408;28;20210;-47
2022/04/16 03:11:18;;;;;;;2.80;2.60;;;;;19.10;101913.00;;;;2072356;28;20241;-47
2022/04/16 03:12:19;;;;;;;3.30;3.00;;;;;19.10;101922.00;;;;2072938;28;20655;-47
2022/04/16 03:13:19;;;;;;;2.90;2.70;;;;;19.10;101917.00;;;;2080232;28;20214;-47
2022/04/16 03:18:16;;;;;;;2.80;2.60;;;;;19.00;101929.00;;;;2078136;28;20785;-47
2022/04/16 03:19:16;;;;;;;3.37;3.07;;;;;19.10;101922.00;;;;2080509;28;20213;-47
2022/04/16 03:20:18;;;;;;;3.10;2.90;;;;;19.00;101921.00;;;;2078772;28;20244;-47
2022/04/16 03:21:19;;;;;;;3.10;2.90;;;;;19.00;101918.00;;;;2079277;28;20213;-52
2022/04/16 03:22:19;;;;;;;2.90;2.70;;;;;19.00;101949.00;;;;2080061;28;21096;-49
2022/04/16 03:23:20;;;;;;;2.77;2.57;;;;;19.00;101927.00;;;;2080450;28;20252;-45
2022/04/16 03:24:20;;;;;;;3.20;2.93;;;;;19.00;101914.00;;;;2080540;28;20784;-47
2022/04/16 03:25:20;;;;;;;3.07;2.87;;;;;19.00;101916.00;;;;2078402;28;20580;-46
2022/04/16 03:26:21;;;;;;;3.13;2.93;;;;;19.00;101919.00;;;;2080367;28;20671;-47
2022/04/16 03:27:21;;;;;;;2.70;2.50;;;;;19.00;101918.00;;;;2080170;28;20260;-47
2022/04/16 03:28:21;;;;;;;3.40;3.10;;;;;19.00;101925.00;;;;2080411;28;20205;-47
2022/04/16 03:29:22;;;;;;;3.60;3.30;;;;;19.00;101921.00;;;;2080284;28;20228;-47
2022/04/16 03:30:23;;;;;;;3.53;3.23;;;;;19.00;101918.00;;;;2080496;28;20233;-45
2022/04/16 03:31:24;;;;;;;3.17;2.88;;;;;19.00;101919.00;;;;2080159;28;20213;-47
2022/04/16 03:32:24;;;;;;;3.30;3.10;;;;;19.00;101919.00;;;;2080184;28;20217;-47
2022/04/16 03:33:24;;;;;;;3.40;3.10;;;;;19.00;101923.00;;;;2079741;28;20698;-46
2022/04/16 03:34:25;;;;;;;3.00;2.80;;;;;19.00;101924.00;;;;2079582;28;20660;-47
2022/04/16 03:35:25;;;;;;;3.43;3.13;;;;;19.00;101931.00;;;;2079493;28;20205;-46
2022/04/16 03:36:25;;;;;;;3.20;3.00;;;;;19.00;101920.00;;;;2080401;28;20304;-47
2022/04/16 03:37:27;;;;;;;3.50;3.20;;;;;19.00;101931.00;;;;2079926;28;20209;-49
2022/04/16 03:38:27;;;;;;;3.50;3.20;;;;;19.00;101935.00;;;;2073919;28;20221;-47
2022/04/16 03:39:28;;;;;;;2.93;2.53;;;;;19.00;101930.00;;;;2079970;28;20214;-47
2022/04/16 03:40:28;;;;;;;3.17;2.97;;;;;19.00;101926.00;;;;2080358;28;20233;-46
2022/04/16 03:41:28;;;;;;;3.03;2.83;;;;;19.00;101932.00;;;;2079916;28;20209;-47
2022/04/16 03:42:29;;;;;;;2.73;2.53;;;;;19.00;101929.00;;;;2080284;28;20221;-46
2022/04/16 03:43:29;;;;;;;3.03;2.83;;;;;19.00;101928.00;;;;2079945;28;20220;-47
2022/04/16 03:44:29;;;;;;;3.43;3.20;;;;;19.00;101939.00;;;;2080163;28;20279;-47
2022/04/16 03:45:32;;;;;;;3.10;2.90;;;;;19.00;101924.00;;;;2079241;28;20206;-47
2022/04/16 03:46:32;;;;;;;3.10;2.90;;;;;19.00;101933.00;;;;2080299;28;20209;-46
2022/04/16 03:47:32;;;;;;;3.50;3.20;;;;;19.00;101924.00;;;;2079746;28;20256;-47
2022/04/16 03:48:33;;;;;;;3.20;3.00;;;;;19.00;101925.00;;;;2080207;28;20213;-47
2022/04/16 03:49:33;;;;;;;3.20;2.90;;;;;19.00;101932.00;;;;2080135;28;20221;-46
2022/04/16 03:50:34;;;;;;;3.03;2.80;;;;;19.00;101930.00;;;;2080343;28;20316;-47
2022/04/16 03:51:34;;;;;;;3.17;2.97;;;;;19.00;101936.00;;;;2080276;28;20217;-46
2022/04/16 03:52:45;;;;;;;3.20;3.00;;;;;19.00;101932.00;;;;2079972;28;20248;-47
2022/04/16 03:53:45;;;;;;;3.20;3.00;;;;;19.00;101938.00;;;;2079966;28;20669;-47
2022/04/16 04:00:03;;;;;;;3.50;3.20;;;;;19.00;101939.00;;;;2082550;28;20217;-46
2022/04/16 04:01:04;;;;;;;3.20;3.00;;;;;19.00;101944.00;;;;2079606;28;20222;-47
2022/04/16 04:02:04;;;;;;;2.92;2.72;;;;;19.00;101946.00;;;;2078519;28;20308;-47
2022/04/16 04:03:04;;;;;;;2.87;2.67;;;;;19.00;101946.00;;;;2079497;28;20328;-47
2022/04/16 04:04:05;;;;;;;3.20;3.00;;;;;19.00;101951.00;;;;2079948;28;20218;-47
2022/04/16 04:05:06;;;;;;;2.97;2.77;;;;;19.00;101946.00;;;;2080288;28;20252;-47
2022/04/16 04:06:07;;;;;;;3.72;3.40;;;;;19.00;101952.00;;;;2076324;28;21068;-47
2022/04/16 04:07:08;;;;;;;2.90;2.70;;;;;19.00;101943.00;;;;2070678;28;20218;-47
2022/04/16 04:08:08;;;;;;;3.37;3.07;;;;;19.00;101943.00;;;;2071156;28;20241;-46
2022/04/16 04:09:09;;;;;;;3.13;2.93;;;;;19.00;101949.00;;;;2071107;28;20210;-47
2022/04/16 04:10:10;;;;;;;3.37;3.07;;;;;19.00;101954.00;;;;2071301;28;20457;-47
2022/04/16 04:11:11;;;;;;;3.10;2.85;;;;;19.00;101955.00;;;;2072079;28;20222;-45
2022/04/16 04:12:12;;;;;;;3.10;2.90;;;;;19.00;101945.00;;;;2071704;28;20218;-47
2022/04/16 04:13:13;;;;;;;3.07;2.87;;;;;19.00;101952.00;;;;2071225;28;20458;-46
2022/04/16 04:14:13;;;;;;;3.05;2.83;;;;;19.00;101947.00;;;;2070912;28;20997;-47
2022/04/16 04:15:14;;;;;;;3.63;3.33;;;;;19.00;101947.00;;;;2071691;28;20249;-47
2022/04/16 04:16:14;;;;;;;2.80;2.60;;;;;19.00;101960.00;;;;2070402;28;20237;-47
2022/04/16 04:17:14;;;;;;;2.80;2.60;;;;;19.00;101950.00;;;;2071418;28;20218;-46
2022/04/16 04:18:15;;;;;;;2.97;2.77;;;;;19.00;101952.00;;;;2064535;28;20288;-46
2022/04/16 04:19:15;;;;;;;3.30;3.00;;;;;19.00;101956.00;;;;2086727;28;20216;-47
2022/04/16 04:20:16;;;;;;;3.30;3.00;;;;;19.00;101949.00;;;;2083313;28;20311;-47
2022/04/16 04:21:16;;;;;;;3.83;3.53;;;;;19.00;101954.00;;;;2079764;28;20260;-47
2022/04/16 04:22:17;;;;;;;3.20;2.90;;;;;19.00;101951.00;;;;2079890;28;20236;-47
2022/04/16 04:23:18;;;;;;;3.57;3.27;;;;;19.00;101953.00;;;;2079681;28;20232;-46
2022/04/16 04:24:18;;;;;;;3.00;2.80;;;;;19.00;101955.00;;;;2078535;28;20217;-46
2022/04/16 04:25:19;;;;;;;3.23;3.00;;;;;19.00;101956.00;;;;2077683;28;21189;-47
2022/04/16 04:26:19;;;;;;;2.97;2.67;;;;;19.00;101956.00;;;;2078960;28;20686;-46
2022/04/16 04:27:19;;;;;;;3.17;2.97;;;;;19.00;101981.00;;;;2071746;28;20717;-47
2022/04/16 04:28:20;;;;;;;3.10;2.90;;;;;19.00;101959.00;;;;2069608;28;20757;-47
2022/04/16 04:29:20;;;;;;;2.70;2.50;;;;;19.00;101958.00;;;;2072735;28;20699;-46
2022/04/16 04:30:21;;;;;;;3.47;2.97;;;;;19.00;101960.00;;;;2073654;28;20214;-46
2022/04/16 04:31:21;;;;;;;2.87;2.67;;;;;19.00;101968.00;;;;2071418;28;20245;-46
2022/04/16 04:32:21;;;;;;;3.30;3.07;;;;;19.00;101971.00;;;;2071458;28;20221;-46
2022/04/16 04:33:22;;;;;;;3.53;3.23;;;;;19.00;101967.00;;;;2071486;28;20210;-46
2022/04/16 04:34:22;;;;;;;3.43;3.13;;;;;19.00;101975.00;;;;2071324;28;20209;-46
2022/04/16 04:35:23;;;;;;;3.53;3.23;;;;;19.00;101968.00;;;;2070651;28;20766;-47
2022/04/16 04:36:24;;;;;;;3.70;3.40;;;;;19.00;101980.00;;;;2071172;28;20210;-46
2022/04/16 04:37:25;;;;;;;3.30;3.10;;;;;19.00;101969.00;;;;2074277;28;20263;-45
2022/04/16 04:38:25;;;;;;;3.30;3.10;;;;;19.00;101975.00;;;;2075509;28;20627;-45
2022/04/16 04:39:25;;;;;;;3.00;2.80;;;;;19.00;101977.00;;;;2071347;28;20230;-46
2022/04/16 04:40:26;;;;;;;3.20;3.00;;;;;19.00;101972.00;;;;2074799;28;20222;-46
2022/04/16 04:41:26;;;;;;;3.37;3.07;;;;;19.00;101977.00;;;;2071273;28;20217;-47
2022/04/16 04:42:31;;;;;;;3.43;3.17;;;;;19.00;101978.00;;;;2071210;28;20214;-46
2022/04/16 04:43:31;;;;;;;3.17;2.88;;;;;19.00;101975.00;;;;2086093;28;20578;-46
2022/04/16 04:44:32;;;;;;;3.80;3.50;;;;;19.00;101976.00;;;;2087463;28;20209;-46
2022/04/16 04:45:32;;;;;;;3.40;3.20;;;;;19.00;101971.00;;;;2086918;28;20217;-46
2022/04/16 04:46:33;;;;;;;3.10;2.90;;;;;19.00;101981.00;;;;2087657;28;20730;-47
2022/04/16 04:47:33;;;;;;;3.20;3.00;;;;;19.00;101984.00;;;;2087088;28;20240;-46
2022/04/16 04:48:34;;;;;;;3.47;3.23;;;;;19.00;101980.00;;;;2087152;28;20231;-46
2022/04/16 04:49:34;;;;;;;3.60;3.30;;;;;19.00;101980.00;;;;2086550;28;20308;-46
2022/04/16 04:50:36;;;;;;;3.07;2.87;;;;;19.00;101987.00;;;;2087053;28;20213;-47
2022/04/16 04:51:39;;;;;;;3.30;3.10;;;;;19.00;101997.00;;;;2087477;28;20220;-47
2022/04/16 04:52:40;;;;;;;3.40;3.10;;;;;19.00;101998.00;;;;2087546;28;20213;-45
2022/04/16 04:53:40;;;;;;;3.38;3.10;;;;;19.00;101913.00;;;;2087701;28;20201;-45
2022/04/16 04:54:41;;;;;;;3.83;3.53;;;;;19.00;101996.00;;;;2087478;28;20583;-47
2022/04/16 04:55:41;;;;;;;3.10;2.90;;;;;19.00;102003.00;;;;2086902;28;20213;-46
2022/04/16 04:56:41;;;;;;;3.53;3.23;;;;;19.00;102007.00;;;;2083174;28;20213;-45
2022/04/16 04:57:42;;;;;;;3.67;3.37;;;;;19.00;102008.00;;;;2078801;28;20213;-46
2022/04/16 04:58:43;;;;;;;3.20;2.90;;;;;19.00;101997.00;;;;2081583;28;20293;-46
2022/04/16 04:59:43;;;;;;;3.53;3.23;;;;;19.00;102002.00;;;;2087416;28;20478;-48
2022/04/16 05:00:43;;;;;;;3.40;3.10;;;;;19.00;101998.00;;;;2087123;28;20235;-45
2022/04/16 05:01:44;;;;;;;3.47;3.17;;;;;19.00;102006.00;;;;2079369;28;20227;-46
2022/04/16 05:02:45;;;;;;;2.90;2.70;;;;;19.00;102013.00;;;;2079165;28;20209;-44
2022/04/16 05:03:45;;;;;;;2.90;2.70;;;;;19.00;102010.00;;;;2079123;28;20300;-46
2022/04/16 05:04:46;;;;;;;3.13;2.87;;;;;19.00;102012.00;;;;2079193;28;20582;-45
2022/04/16 05:05:47;;;;;;;3.30;3.00;;;;;19.00;102011.00;;;;2078596;28;20205;-45
2022/04/16 05:06:47;;;;;;;3.10;2.90;;;;;19.00;102011.00;;;;2079211;28;20221;-46
2022/04/16 05:07:48;;;;;;;3.40;3.20;;;;;19.00;102007.00;;;;2079009;28;21076;-45
2022/04/16 05:08:48;;;;;;;3.37;3.13;;;;;19.00;102011.00;;;;2079171;28;20216;-45
2022/04/16 05:09:48;;;;;;;3.30;3.00;;;;;19.00;102013.00;;;;2079384;28;20214;-45
2022/04/16 05:10:49;;;;;;;3.93;3.63;;;;;19.00;102006.00;;;;2079332;28;20218;-47
2022/04/16 05:11:49;;;;;;;4.03;3.73;;;;;18.70;102012.00;;;;2078877;28;20244;-47